createdAt,value
2018-08-09T00:01:07.428Z,23.87
2018-08-09T00:03:36.171Z,23.83
2018-08-09T00:06:04.998Z,23.82
2018-08-09T00:08:33.768Z,23.83
2018-08-09T00:11:02.516Z,23.80
2018-08-09T00:13:31.150Z,23.75
2018-08-09T00:15:59.926Z,23.70
2018-08-09T00:18:28.681Z,23.65
2018-08-09T00:20:58.108Z,23.59
2018-08-09T00:23:27.039Z,23.55
2018-08-09T00:25:55.777Z,23.51
2018-08-09T00:28:24.475Z,23.47
2018-08-09T00:30:53.306Z,23.40
2018-08-09T00:33:22.034Z,23.35
2018-08-09T00:35:50.889Z,23.36
2018-08-09T00:38:19.590Z,23.26
2018-08-09T00:40:48.322Z,23.23
2018-08-09T00:43:17.146Z,23.22
2018-08-09T00:45:46.009Z,23.15
2018-08-09T00:48:15.029Z,23.09
2018-08-09T00:50:43.778Z,23.07
2018-08-09T00:53:12.489Z,23.01
2018-08-09T00:55:41.403Z,22.97
2018-08-09T00:58:10.192Z,22.95
2018-08-09T01:00:38.926Z,23.01
2018-08-09T01:03:07.615Z,22.96
2018-08-09T01:05:36.474Z,22.99
2018-08-09T01:08:05.117Z,23.00
2018-08-09T01:10:33.773Z,23.01
2018-08-09T01:13:02.401Z,22.93
2018-08-09T01:15:31.081Z,22.90
2018-08-09T01:17:59.833Z,22.82
2018-08-09T01:20:28.471Z,22.86
2018-08-09T01:22:57.457Z,22.87
2018-08-09T01:25:26.617Z,22.82
2018-08-09T01:27:55.382Z,22.71
2018-08-09T01:30:24.662Z,22.64
2018-08-09T01:32:53.548Z,22.63
2018-08-09T01:35:22.194Z,22.57
2018-08-09T01:37:50.894Z,22.60
2018-08-09T01:40:19.555Z,22.55
2018-08-09T01:42:59.477Z,22.57
2018-08-09T01:45:28.110Z,22.53
2018-08-09T01:47:56.852Z,22.46
2018-08-09T01:50:25.687Z,22.46
2018-08-09T01:52:54.377Z,22.48
2018-08-09T01:55:23.302Z,22.46
2018-08-09T01:57:52.098Z,22.41
2018-08-09T02:00:20.931Z,22.39
2018-08-09T02:02:49.654Z,22.38
2018-08-09T02:05:18.322Z,22.40
2018-08-09T02:07:47.241Z,22.40
2018-08-09T02:10:16.082Z,22.41
2018-08-09T02:12:44.881Z,22.35
2018-08-09T02:15:13.647Z,22.33
2018-08-09T02:17:42.300Z,22.32
2018-08-09T02:20:11.284Z,22.33
2018-08-09T02:22:39.922Z,22.31
2018-08-09T02:25:08.605Z,22.32
2018-08-09T02:27:37.250Z,22.29
2018-08-09T02:30:07.370Z,22.25
2018-08-09T02:32:36.118Z,22.28
2018-08-09T02:35:05.122Z,22.26
2018-08-09T02:37:33.813Z,22.28
2018-08-09T02:40:02.730Z,22.26
2018-08-09T02:42:31.577Z,22.26
2018-08-09T02:45:00.348Z,22.16
2018-08-09T02:47:29.518Z,22.12
2018-08-09T02:49:58.518Z,22.08
2018-08-09T02:52:27.983Z,22.10
2018-08-09T02:54:57.493Z,22.09
2018-08-09T02:57:26.969Z,22.07
2018-08-09T02:59:56.514Z,22.02
2018-08-09T03:02:25.218Z,22.01
2018-08-09T03:04:54.190Z,21.98
2018-08-09T03:07:23.004Z,21.98
2018-08-09T03:09:52.227Z,21.91
2018-08-09T03:12:21.117Z,21.88
2018-08-09T03:14:50.090Z,21.89
2018-08-09T03:17:18.790Z,21.88
2018-08-09T03:19:47.506Z,21.87
2018-08-09T03:22:16.546Z,21.86
2018-08-09T03:24:45.363Z,21.85
2018-08-09T03:27:14.197Z,21.83
2018-08-09T03:29:43.128Z,21.82
2018-08-09T03:32:11.881Z,21.81
2018-08-09T03:34:40.570Z,21.77
2018-08-09T03:37:09.586Z,21.76
2018-08-09T03:39:38.361Z,21.74
2018-08-09T03:42:07.154Z,21.68
2018-08-09T03:44:35.954Z,21.69
2018-08-09T03:47:04.713Z,21.63
2018-08-09T03:49:33.483Z,21.59
2018-08-09T03:52:02.194Z,21.55
2018-08-09T03:54:30.867Z,21.56
2018-08-09T03:56:59.674Z,21.57
2018-08-09T03:59:28.410Z,21.52
2018-08-09T04:01:57.289Z,21.49
2018-08-09T04:04:25.979Z,21.52
2018-08-09T04:06:54.981Z,21.50
2018-08-09T04:09:23.725Z,21.50
2018-08-09T04:11:52.468Z,21.55
2018-08-09T04:14:21.430Z,21.56
2018-08-09T04:16:50.095Z,21.59
2018-08-09T04:19:18.759Z,21.60
2018-08-09T04:21:47.500Z,21.65
2018-08-09T04:24:16.365Z,21.67
2018-08-09T04:26:45.172Z,21.61
2018-08-09T04:29:13.909Z,21.59
2018-08-09T04:31:42.738Z,21.57
2018-08-09T04:34:11.434Z,21.54
2018-08-09T04:36:40.077Z,21.55
2018-08-09T04:39:09.969Z,21.51
2018-08-09T04:41:38.684Z,21.61
2018-08-09T04:44:07.709Z,21.61
2018-08-09T04:46:36.482Z,21.68
2018-08-09T04:49:05.374Z,21.64
2018-08-09T04:51:34.118Z,21.64
2018-08-09T04:54:02.846Z,21.71
2018-08-09T04:56:31.672Z,21.72
2018-08-09T04:59:00.458Z,21.74
2018-08-09T05:01:29.198Z,21.74
2018-08-09T05:03:57.910Z,21.82
2018-08-09T05:06:26.635Z,21.73
2018-08-09T05:08:55.403Z,21.80
2018-08-09T05:11:24.202Z,21.76
2018-08-09T05:13:52.995Z,21.86
2018-08-09T05:16:21.773Z,21.86
2018-08-09T05:18:50.590Z,21.96
2018-08-09T05:21:19.522Z,22.05
2018-08-09T05:23:48.462Z,22.07
2018-08-09T05:26:17.193Z,22.16
2018-08-09T05:28:46.028Z,22.27
2018-08-09T05:31:14.769Z,22.31
2018-08-09T05:33:43.518Z,22.36
2018-08-09T05:36:12.281Z,22.43
2018-08-09T05:38:41.038Z,22.47
2018-08-09T05:41:10.077Z,22.56
2018-08-09T05:43:38.733Z,22.55
2018-08-09T05:46:07.662Z,22.63
2018-08-09T05:48:36.434Z,22.73
2018-08-09T05:51:05.240Z,22.73
2018-08-09T05:53:34.222Z,22.81
2018-08-09T05:56:02.982Z,22.84
2018-08-09T09:36:51.053Z,29.90
2018-08-09T09:39:19.807Z,30.06
2018-08-09T09:41:48.636Z,30.07
2018-08-09T09:44:17.466Z,30.04
2018-08-09T09:46:46.286Z,30.22
2018-08-09T09:49:15.261Z,30.32
2018-08-09T09:51:43.999Z,30.45
2018-08-09T09:54:12.949Z,30.70
2018-08-09T09:56:41.674Z,30.66
2018-08-09T09:59:10.482Z,30.48
2018-08-09T10:01:39.349Z,30.62
2018-08-09T10:04:13.169Z,30.78
2018-08-09T10:06:42.261Z,30.96
2018-08-09T10:09:12.201Z,30.90
2018-08-09T10:11:41.240Z,30.93
2018-08-09T10:14:10.008Z,30.95
2018-08-09T10:16:38.784Z,30.84
2018-08-09T10:19:07.704Z,30.98
2018-08-09T10:21:37.045Z,31.14
2018-08-09T10:24:05.852Z,31.10
2018-08-09T10:26:34.893Z,31.14
2018-08-09T10:29:03.703Z,31.19
2018-08-09T10:31:33.863Z,31.26
2018-08-09T10:34:02.905Z,31.46
2018-08-09T10:36:31.796Z,31.51
2018-08-09T10:39:00.748Z,31.67
2018-08-09T10:41:29.563Z,31.56
2018-08-09T10:43:58.211Z,31.52
2018-08-09T10:46:27.021Z,31.71
2018-08-09T10:48:55.791Z,31.63
2018-08-09T10:51:25.022Z,31.63
2018-08-09T10:53:53.876Z,31.51
2018-08-09T10:56:24.901Z,31.68
2018-08-09T10:58:53.687Z,31.87
2018-08-09T11:01:22.523Z,31.83
2018-08-09T11:03:51.201Z,31.96
2018-08-09T11:06:20.157Z,32.05
2018-08-09T11:08:48.951Z,32.25
2018-08-09T11:11:17.652Z,32.14
2018-08-09T11:13:46.741Z,32.29
2018-08-09T11:16:16.299Z,32.53
2018-08-09T11:18:45.777Z,32.54
2018-08-09T11:21:15.105Z,32.43
2018-08-09T11:23:43.935Z,32.41
2018-08-09T11:26:12.648Z,32.40
2018-08-09T11:28:41.409Z,32.48
2018-08-09T11:31:10.468Z,32.24
2018-08-09T11:33:39.446Z,32.23
2018-08-09T11:36:08.171Z,32.32
2018-08-09T11:38:36.901Z,32.53
2018-08-09T11:41:05.593Z,32.85
2018-08-09T11:43:34.361Z,33.09
2018-08-09T11:46:03.293Z,33.08
2018-08-09T11:48:32.477Z,33.39
2018-08-09T11:51:01.397Z,33.77
2018-08-09T11:53:30.085Z,33.73
2018-08-09T11:55:58.843Z,33.86
2018-08-09T11:58:27.857Z,34.14
2018-08-09T12:00:56.497Z,34.32
2018-08-09T12:03:25.357Z,34.81
2018-08-09T12:05:54.560Z,35.28
2018-08-09T12:08:23.432Z,35.65
2018-08-09T12:10:52.311Z,36.10
2018-08-09T12:13:21.302Z,36.42
2018-08-09T12:15:51.251Z,37.01
2018-08-09T12:18:20.127Z,37.35
2018-08-09T12:20:49.009Z,38.57
2018-08-09T12:23:17.753Z,38.18
2018-08-09T12:25:46.725Z,38.08
2018-08-09T12:28:15.469Z,38.03
2018-08-09T12:30:44.173Z,39.25
2018-08-09T12:33:13.151Z,39.35
2018-08-09T12:35:42.665Z,39.31
2018-08-09T12:38:11.442Z,39.99
2018-08-09T12:40:40.194Z,39.21
2018-08-09T12:43:08.930Z,40.33
2018-08-09T12:45:37.981Z,40.92
2018-08-09T12:48:07.272Z,40.30
2018-08-09T12:50:36.443Z,41.08
2018-08-09T12:53:05.861Z,40.78
2018-08-09T12:55:34.801Z,40.21
2018-08-09T12:58:03.622Z,40.61
2018-08-09T13:00:32.479Z,41.45
2018-08-09T13:03:01.158Z,41.00
2018-08-09T13:05:30.067Z,41.36
2018-08-09T13:07:58.945Z,41.86
2018-08-09T13:10:27.657Z,41.74
2018-08-09T13:12:56.473Z,43.09
2018-08-09T13:15:26.382Z,42.09
2018-08-09T13:17:55.239Z,42.72
2018-08-09T13:20:24.160Z,42.54
2018-08-09T13:22:52.889Z,41.87
2018-08-09T13:25:21.749Z,42.61
2018-08-09T13:27:50.604Z,42.80
2018-08-09T13:30:19.381Z,43.37
2018-08-09T13:32:48.065Z,43.76
2018-08-09T13:35:16.799Z,43.39
2018-08-09T13:37:45.686Z,43.15
2018-08-09T13:40:14.480Z,42.75
2018-08-09T13:42:43.237Z,43.14
2018-08-09T13:45:15.023Z,43.43
2018-08-09T13:47:43.978Z,44.32
2018-08-09T13:50:13.273Z,43.51
2018-08-09T13:52:42.748Z,42.58
2018-08-09T13:55:13.806Z,42.75
2018-08-09T13:57:42.567Z,43.58
2018-08-09T14:00:12.941Z,44.46
2018-08-09T14:02:43.585Z,43.77
2018-08-09T14:05:12.504Z,43.33
2018-08-09T14:07:43.063Z,42.73
2018-08-09T14:10:12.341Z,41.26
2018-08-09T14:12:42.141Z,39.58
2018-08-09T14:15:12.518Z,39.03
2018-08-09T14:17:41.221Z,38.65
2018-08-09T14:20:15.675Z,38.26
2018-08-09T14:22:44.462Z,38.06
2018-08-09T14:25:13.762Z,37.60
2018-08-09T14:27:42.773Z,37.06
2018-08-09T14:30:13.703Z,36.41
2018-08-09T14:32:43.125Z,36.15
2018-08-09T14:35:13.581Z,35.98
2018-08-09T14:37:42.974Z,35.65
2018-08-09T14:40:12.531Z,35.70
2018-08-09T14:42:41.398Z,35.51
2018-08-09T14:45:15.829Z,35.39
2018-08-09T14:47:44.824Z,35.57
2018-08-09T14:50:13.789Z,35.73
2018-08-09T14:52:43.023Z,35.61
2018-08-09T14:55:13.380Z,35.41
2018-08-09T14:57:43.088Z,34.99
2018-08-09T15:00:16.485Z,35.06
2018-08-09T15:02:46.294Z,35.23
2018-08-09T15:05:16.521Z,35.29
2018-08-09T15:07:46.098Z,35.44
2018-08-09T15:10:16.278Z,35.45
2018-08-09T15:12:45.455Z,35.23
2018-08-09T15:15:14.481Z,35.32
2018-08-09T15:17:43.276Z,35.23
2018-08-09T15:20:14.184Z,35.16
2018-08-09T15:22:43.697Z,35.30
2018-08-09T15:25:12.927Z,35.09
2018-08-09T15:27:41.722Z,35.38
2018-08-09T15:30:16.690Z,35.53
2018-08-09T15:32:45.563Z,35.51
2018-08-09T15:35:15.201Z,35.42
2018-08-09T15:37:44.275Z,35.31
2018-08-09T15:40:13.664Z,35.18
2018-08-09T15:42:42.576Z,34.67
2018-08-09T15:45:13.391Z,34.49
2018-08-09T15:47:43.084Z,33.18
2018-08-09T15:50:17.445Z,32.51
2018-08-09T15:52:46.864Z,32.19
2018-08-09T15:55:16.917Z,31.80
2018-08-09T15:57:45.996Z,30.81
2018-08-09T16:00:18.842Z,30.53
2018-08-09T16:02:47.856Z,30.48
2018-08-09T16:05:16.913Z,30.26
2018-08-09T16:07:46.134Z,30.15
2018-08-09T16:10:16.092Z,30.09
2018-08-09T16:12:45.899Z,29.84
2018-08-09T16:15:17.305Z,29.49
2018-08-09T16:17:47.452Z,29.37
2018-08-09T16:20:16.450Z,29.17
2018-08-09T16:22:46.125Z,29.03
2018-08-09T16:25:18.325Z,29.01
2018-08-09T16:27:47.709Z,29.08
2018-08-09T16:30:23.150Z,29.05
2018-08-09T16:32:52.158Z,28.90
2018-08-09T16:35:21.374Z,29.08
2018-08-09T16:37:50.517Z,29.10
2018-08-09T16:40:21.630Z,29.18
2018-08-09T16:42:50.377Z,29.34
2018-08-09T16:45:20.431Z,29.27
2018-08-09T16:47:49.913Z,29.19
2018-08-09T16:50:20.871Z,29.15
2018-08-09T16:52:50.771Z,29.20
2018-08-09T16:55:20.930Z,28.92
2018-08-09T16:57:49.689Z,29.23
2018-08-09T17:00:20.929Z,28.99
2018-08-09T17:02:50.144Z,28.62
2018-08-09T17:05:21.386Z,28.66
2018-08-09T17:07:50.749Z,28.93
2018-08-09T17:10:21.712Z,29.04
2018-08-09T17:12:50.625Z,28.94
2018-08-09T17:15:21.677Z,29.00
2018-08-09T17:17:50.755Z,29.23
2018-08-09T17:20:22.979Z,29.25
2018-08-09T17:22:51.819Z,29.20
2018-08-09T17:25:20.791Z,29.19
2018-08-09T17:27:50.177Z,29.41
2018-08-09T17:30:21.933Z,29.41
2018-08-09T17:32:50.749Z,29.36
2018-08-09T17:35:20.268Z,29.70
